createdAt,value
2022-12-17T00:00:06.147Z,88.85
2022-12-17T00:02:52.911Z,88.49
2022-12-17T00:05:42.275Z,88.66
2022-12-17T00:08:28.894Z,88.72
2022-12-17T00:11:17.075Z,88.90
2022-12-17T00:14:03.693Z,88.60
2022-12-17T00:16:51.084Z,88.59
2022-12-17T00:19:38.464Z,88.70
2022-12-17T00:22:25.247Z,88.62
2022-12-17T00:25:12.237Z,88.83
2022-12-17T00:27:59.329Z,89.01
2022-12-17T00:30:45.989Z,88.84
2022-12-17T00:33:41.299Z,89.09
2022-12-17T00:36:27.703Z,88.96
2022-12-17T00:39:14.983Z,89.20
2022-12-17T00:42:02.227Z,89.16
2022-12-17T00:44:50.025Z,89.23
2022-12-17T00:47:37.105Z,89.20
2022-12-17T00:50:26.473Z,89.08
2022-12-17T00:53:13.577Z,89.18
2022-12-17T00:56:01.124Z,89.26
2022-12-17T00:58:48.019Z,89.42
2022-12-17T01:01:34.920Z,89.24
2022-12-17T01:04:22.282Z,89.20
2022-12-17T01:07:11.484Z,88.99
2022-12-17T01:09:58.161Z,89.29
2022-12-17T01:12:45.797Z,89.37
2022-12-17T01:15:32.436Z,89.21
2022-12-17T01:18:19.713Z,89.45
2022-12-17T01:21:06.231Z,89.53
2022-12-17T01:23:52.932Z,89.42
2022-12-17T01:26:39.747Z,89.84
2022-12-17T01:29:26.846Z,90.33
2022-12-17T01:32:13.285Z,90.44
2022-12-17T01:35:00.302Z,90.61
2022-12-17T01:37:47.074Z,90.65
2022-12-17T01:40:35.383Z,90.68
2022-12-17T01:43:32.919Z,90.23
2022-12-17T01:46:20.183Z,90.54
2022-12-17T01:49:07.163Z,90.42
2022-12-17T01:51:54.609Z,90.18
2022-12-17T01:54:41.477Z,90.64
2022-12-17T01:57:29.339Z,90.37
2022-12-17T02:00:21.814Z,90.14
2022-12-17T02:03:08.985Z,90.17
2022-12-17T02:06:01.426Z,90.13
2022-12-17T02:08:52.945Z,90.17
2022-12-17T02:11:46.878Z,89.98
2022-12-17T02:14:40.183Z,90.22
2022-12-17T02:17:30.309Z,90.04
2022-12-17T02:20:29.558Z,90.18
2022-12-17T02:23:26.603Z,89.83
2022-12-17T02:26:15.974Z,90.17
2022-12-17T02:29:06.410Z,90.09
2022-12-17T02:31:58.682Z,90.47
2022-12-17T02:34:46.429Z,90.65
2022-12-17T02:37:33.698Z,90.44
2022-12-17T02:40:20.617Z,90.30
2022-12-17T02:43:09.290Z,90.27
2022-12-17T02:45:57.447Z,90.39
2022-12-17T02:48:48.732Z,90.25
2022-12-17T02:51:35.690Z,90.51
2022-12-17T02:54:23.854Z,90.36
2022-12-17T02:57:13.324Z,90.23
2022-12-17T03:00:00.307Z,90.69
2022-12-17T03:02:46.991Z,90.23
2022-12-17T03:05:45.900Z,90.33
2022-12-17T03:08:32.956Z,90.15
2022-12-17T03:11:23.800Z,90.24
2022-12-17T03:14:11.551Z,90.44
2022-12-17T03:17:02.641Z,90.50
2022-12-17T03:19:49.268Z,90.65
2022-12-17T03:22:49.195Z,90.28
2022-12-17T03:25:35.951Z,90.53
2022-12-17T03:28:24.824Z,90.47
2022-12-17T03:31:11.463Z,90.33
2022-12-17T03:34:01.648Z,90.73
2022-12-17T03:36:48.760Z,90.24
2022-12-17T03:39:35.548Z,90.31
2022-12-17T03:42:24.552Z,90.30
2022-12-17T03:45:11.822Z,90.48
2022-12-17T03:47:58.130Z,90.50
2022-12-17T03:50:45.035Z,90.22
2022-12-17T03:53:34.974Z,90.29
2022-12-17T03:56:22.626Z,90.29
2022-12-17T03:59:09.525Z,90.00
2022-12-17T04:01:56.212Z,90.29
2022-12-17T04:04:42.794Z,90.36
2022-12-17T04:07:38.400Z,90.15
2022-12-17T04:10:27.063Z,90.37
2022-12-17T04:13:19.575Z,90.12
2022-12-17T04:16:06.517Z,90.23
2022-12-17T04:18:53.596Z,90.39
2022-12-17T04:21:42.596Z,89.97
2022-12-17T04:24:29.415Z,90.02
2022-12-17T04:27:16.198Z,90.01
2022-12-17T04:30:02.965Z,89.92
2022-12-17T04:32:49.535Z,90.00
2022-12-17T04:35:36.945Z,89.97
2022-12-17T04:38:25.869Z,89.97
2022-12-17T04:41:12.710Z,89.94
2022-12-17T04:44:03.190Z,89.84
2022-12-17T04:46:50.565Z,89.23
2022-12-17T04:49:37.290Z,89.36
2022-12-17T04:52:26.647Z,89.74
2022-12-17T04:55:14.090Z,89.73
2022-12-17T04:58:01.491Z,89.58
2022-12-17T05:00:48.128Z,89.43
2022-12-17T05:03:36.151Z,89.85
2022-12-17T05:06:29.174Z,89.77
2022-12-17T05:09:16.426Z,89.29
2022-12-17T05:12:03.281Z,89.28
2022-12-17T05:14:50.205Z,89.25
2022-12-17T05:17:36.908Z,89.25
2022-12-17T05:20:24.347Z,89.51
2022-12-17T05:23:10.583Z,89.24
2022-12-17T05:26:00.095Z,89.11
2022-12-17T05:28:54.640Z,89.21
2022-12-17T05:31:42.124Z,89.39
2022-12-17T05:34:28.876Z,89.27
2022-12-17T05:37:15.715Z,89.42
2022-12-17T05:40:06.603Z,89.42
2022-12-17T05:42:56.244Z,89.26
2022-12-17T05:45:43.131Z,89.27
2022-12-17T05:48:30.475Z,89.16
2022-12-17T05:51:17.042Z,89.25
2022-12-17T05:54:03.928Z,89.26
2022-12-17T05:56:50.758Z,89.29
2022-12-17T05:59:38.504Z,89.29
2022-12-17T06:02:25.200Z,89.34
2022-12-17T06:05:12.391Z,89.45
2022-12-17T06:07:59.042Z,89.53
2022-12-17T06:10:46.549Z,89.66
2022-12-17T06:13:34.434Z,89.30
2022-12-17T06:16:24.706Z,89.43
2022-12-17T06:19:11.376Z,89.54
2022-12-17T06:21:57.982Z,89.44
2022-12-17T06:24:46.249Z,89.30
2022-12-17T06:27:33.461Z,89.49
2022-12-17T06:30:20.434Z,89.45
2022-12-17T06:33:07.327Z,89.55
2022-12-17T06:35:53.989Z,89.53
2022-12-17T06:38:40.901Z,89.08
2022-12-17T06:41:27.724Z,89.21
2022-12-17T06:44:14.751Z,89.23
2022-12-17T06:47:01.310Z,89.36
2022-12-17T06:49:49.182Z,89.54
2022-12-17T06:52:35.981Z,89.41
2022-12-17T06:55:24.211Z,89.70
2022-12-17T06:58:15.219Z,89.43
2022-12-17T07:01:03.445Z,89.53
2022-12-17T07:03:46.386Z,89.59
2022-12-17T07:06:33.761Z,89.68
2022-12-17T07:09:21.303Z,89.76
2022-12-17T07:12:10.090Z,89.62
2022-12-17T07:14:56.926Z,89.93
2022-12-17T07:17:44.206Z,89.90
2022-12-17T07:20:31.372Z,89.67
2022-12-17T07:23:18.476Z,89.53
2022-12-17T07:26:05.325Z,89.49
2022-12-17T07:28:54.847Z,89.53
2022-12-17T07:31:43.032Z,89.24
2022-12-17T07:34:32.719Z,89.19
2022-12-17T07:37:20.833Z,89.39
2022-12-17T07:40:07.706Z,89.61
2022-12-17T07:42:55.022Z,89.39
2022-12-17T07:45:41.837Z,89.43
2022-12-17T07:48:29.919Z,89.43
2022-12-17T07:51:17.243Z,89.47
2022-12-17T07:54:04.655Z,89.43
2022-12-17T07:56:52.919Z,89.34
2022-12-17T07:59:41.612Z,89.60
2022-12-17T08:02:35.282Z,89.27
2022-12-17T08:05:26.527Z,89.54
2022-12-17T08:08:13.714Z,89.38
2022-12-17T08:11:00.214Z,89.55
2022-12-17T08:13:47.775Z,89.25
2022-12-17T08:16:31.021Z,89.43
2022-12-17T08:19:18.202Z,89.10
2022-12-17T08:22:05.130Z,88.91
2022-12-17T08:24:51.651Z,88.95
2022-12-17T08:27:39.699Z,89.21
2022-12-17T08:30:28.142Z,88.96
2022-12-17T08:33:15.096Z,89.07
2022-12-17T08:35:58.468Z,88.89
2022-12-17T08:38:45.164Z,88.69
2022-12-17T08:41:34.217Z,89.09
2022-12-17T08:44:23.568Z,89.11
2022-12-17T08:47:10.344Z,89.19
2022-12-17T08:49:57.460Z,88.93
2022-12-17T08:52:44.101Z,88.74
2022-12-17T08:55:31.077Z,88.50
2022-12-17T08:58:18.375Z,88.67
2022-12-17T09:01:06.068Z,88.83
2022-12-17T09:03:53.454Z,88.66
2022-12-17T09:06:40.270Z,88.86
2022-12-17T09:09:28.291Z,89.12
2022-12-17T09:12:15.108Z,88.89
2022-12-17T09:15:01.943Z,88.83
2022-12-17T09:17:49.090Z,89.01
2022-12-17T09:20:37.076Z,89.05
2022-12-17T09:23:24.331Z,88.87
2022-12-17T09:26:15.913Z,88.91
2022-12-17T09:29:05.194Z,89.09
2022-12-17T09:31:52.502Z,89.17
2022-12-17T09:34:39.152Z,88.90
2022-12-17T09:37:26.009Z,88.91
2022-12-17T09:40:14.301Z,88.76
2022-12-17T09:43:03.966Z,88.65
2022-12-17T09:45:57.322Z,88.43
2022-12-17T09:48:56.674Z,88.67
2022-12-17T09:51:51.108Z,88.55
2022-12-17T09:54:38.243Z,88.37
2022-12-17T09:57:40.101Z,88.63
2022-12-17T10:00:37.063Z,88.79
2022-12-17T10:03:30.217Z,88.87
2022-12-17T10:06:22.639Z,88.29
2022-12-17T10:09:18.310Z,88.12
2022-12-17T10:12:05.290Z,88.37
2022-12-17T10:14:55.124Z,88.69
2022-12-17T10:17:42.597Z,88.55
2022-12-17T10:20:39.546Z,89.11
2022-12-17T10:23:27.836Z,89.10
2022-12-17T10:26:14.187Z,88.51
2022-12-17T10:29:04.821Z,88.33
2022-12-17T10:31:51.469Z,88.16
2022-12-17T10:34:39.332Z,88.10
2022-12-17T10:37:38.143Z,88.05
2022-12-17T10:40:41.115Z,88.12
2022-12-17T10:43:57.234Z,88.26
2022-12-17T10:46:45.660Z,88.10
2022-12-17T10:49:35.419Z,87.94
2022-12-17T10:52:29.684Z,88.03
2022-12-17T10:55:20.607Z,88.09
2022-12-17T10:58:11.564Z,88.31
2022-12-17T11:00:59.686Z,88.13
2022-12-17T11:03:50.720Z,88.54
2022-12-17T11:06:42.769Z,88.54
2022-12-17T11:09:49.758Z,88.43
2022-12-17T11:12:38.014Z,88.69
2022-12-17T11:15:36.070Z,88.90
2022-12-17T11:18:25.026Z,88.95
2022-12-17T11:21:18.883Z,88.45
2022-12-17T11:24:08.378Z,88.50
2022-12-17T11:26:57.739Z,88.31
2022-12-17T11:29:43.462Z,88.10
2022-12-17T11:32:55.552Z,88.45
2022-12-17T11:35:48.655Z,88.47
2022-12-17T11:38:53.111Z,88.57
2022-12-17T11:41:55.071Z,88.49
2022-12-17T11:44:51.406Z,88.15
2022-12-17T11:47:45.934Z,87.97
2022-12-17T11:50:39.169Z,88.20
2022-12-17T11:53:35.624Z,88.39
2022-12-17T11:56:26.235Z,88.60
2022-12-17T11:59:18.406Z,88.78
2022-12-17T12:02:10.976Z,88.56
2022-12-17T12:05:15.482Z,88.60
2022-12-17T12:08:08.177Z,88.59
2022-12-17T12:10:57.642Z,88.41
2022-12-17T12:13:48.767Z,88.27
2022-12-17T12:16:44.949Z,88.47
2022-12-17T12:19:36.842Z,88.78
2022-12-17T12:22:30.784Z,88.98
2022-12-17T12:25:33.707Z,89.04
2022-12-17T12:28:29.293Z,88.83
2022-12-17T12:31:21.906Z,89.01
2022-12-17T12:34:12.233Z,88.82
2022-12-17T12:37:02.153Z,88.50
2022-12-17T12:39:52.572Z,88.52
2022-12-17T12:42:44.675Z,88.58
2022-12-17T12:45:57.167Z,88.56
2022-12-17T12:48:55.252Z,88.60
2022-12-17T12:51:44.564Z,88.82
2022-12-17T12:54:45.246Z,88.93
2022-12-17T12:57:47.078Z,88.96
2022-12-17T13:00:46.779Z,88.94
2022-12-17T13:03:41.249Z,88.82
2022-12-17T13:06:11.960Z,88.77
2022-12-17T13:08:43.441Z,88.72
2022-12-17T13:11:31.671Z,88.80
2022-12-17T13:14:07.568Z,89.01
2022-12-17T13:16:43.369Z,88.86
2022-12-17T13:19:21.690Z,88.99
2022-12-17T13:21:50.923Z,89.04
2022-12-17T13:24:25.888Z,89.13
2022-12-17T13:26:55.096Z,89.05
2022-12-17T13:29:29.373Z,89.10
2022-12-17T13:32:15.876Z,89.08
2022-12-17T13:34:52.701Z,88.82
2022-12-17T13:37:29.342Z,88.68
2022-12-17T13:40:04.322Z,88.62
2022-12-17T13:42:35.378Z,88.65
2022-12-17T13:45:05.027Z,88.93
2022-12-17T13:47:34.975Z,88.88
2022-12-17T13:50:36.874Z,88.58
2022-12-17T13:53:16.102Z,88.66
2022-12-17T13:55:50.862Z,88.60
2022-12-17T13:58:24.684Z,88.59
2022-12-17T14:01:03.280Z,88.63
2022-12-17T14:03:57.098Z,88.66
2022-12-17T14:06:21.166Z,88.46
2022-12-17T14:08:51.566Z,88.43
2022-12-17T14:11:39.186Z,88.35
2022-12-17T14:14:13.916Z,88.43
2022-12-17T14:16:46.164Z,88.49
2022-12-17T14:19:19.310Z,88.36
2022-12-17T14:21:48.513Z,88.45
2022-12-17T14:24:20.408Z,88.31
2022-12-17T14:26:54.130Z,88.14
2022-12-17T14:29:24.830Z,88.14
2022-12-17T14:31:55.060Z,88.16
2022-12-17T14:34:27.667Z,88.50
2022-12-17T14:37:00.762Z,88.59
2022-12-17T14:39:33.194Z,88.72
2022-12-17T14:42:25.231Z,88.60
2022-12-17T14:44:55.889Z,88.49
2022-12-17T14:47:27.556Z,88.59
2022-12-17T14:50:06.111Z,88.72
2022-12-17T14:52:40.491Z,88.34
2022-12-17T14:55:31.056Z,88.43
2022-12-17T14:58:15.658Z,88.65
2022-12-17T15:00:48.026Z,88.45
2022-12-17T15:03:21.247Z,88.45
2022-12-17T15:05:59.479Z,88.44
2022-12-17T15:08:30.955Z,88.34
2022-12-17T15:10:59.204Z,88.61
2022-12-17T15:13:28.202Z,88.63
2022-12-17T15:15:57.495Z,88.79
2022-12-17T15:18:26.858Z,88.52
2022-12-17T15:21:00.227Z,88.39
2022-12-17T15:23:28.588Z,88.36
2022-12-17T15:25:57.747Z,88.34
2022-12-17T15:28:27.461Z,88.43
2022-12-17T15:30:56.823Z,88.62
2022-12-17T15:33:25.629Z,88.74
2022-12-17T15:35:53.967Z,88.91
2022-12-17T15:38:24.704Z,89.04
2022-12-17T15:40:53.531Z,89.13
2022-12-17T15:43:23.489Z,89.10
2022-12-17T15:45:57.330Z,89.21
2022-12-17T15:48:27.327Z,89.43
2022-12-17T15:50:56.855Z,89.43
2022-12-17T15:53:28.203Z,89.48
2022-12-17T15:56:03.866Z,89.28
2022-12-17T15:58:41.502Z,89.45
2022-12-17T16:01:12.510Z,89.11
2022-12-17T16:03:52.190Z,89.21
2022-12-17T16:06:30.690Z,88.82
2022-12-17T16:09:02.572Z,89.08
2022-12-17T16:11:32.208Z,89.19
2022-12-17T16:14:02.669Z,88.99
2022-12-17T16:16:37.075Z,88.80
2022-12-17T16:19:12.004Z,88.94
2022-12-17T16:21:46.459Z,88.95
2022-12-17T16:24:21.171Z,89.06
2022-12-17T16:26:52.806Z,89.02
2022-12-17T16:29:21.898Z,89.05
2022-12-17T16:31:51.589Z,89.08
2022-12-17T16:34:23.225Z,88.74
2022-12-17T16:36:53.185Z,88.80
2022-12-17T16:39:22.172Z,88.87
2022-12-17T16:41:51.781Z,88.73
2022-12-17T16:44:20.265Z,88.74
2022-12-17T16:46:48.647Z,88.46
2022-12-17T16:49:19.362Z,88.62
2022-12-17T16:51:53.216Z,88.79
2022-12-17T16:54:26.303Z,88.78
2022-12-17T16:57:09.914Z,88.93
2022-12-17T17:00:23.868Z,89.02
2022-12-17T17:03:13.221Z,89.08
2022-12-17T17:05:43.995Z,88.91
2022-12-17T17:08:17.373Z,88.83
2022-12-17T17:10:53.487Z,89.05
2022-12-17T17:13:28.463Z,88.69
2022-12-17T17:16:02.579Z,88.58
2022-12-17T17:18:43.940Z,88.65
2022-12-17T17:21:19.486Z,88.93
2022-12-17T17:23:54.311Z,88.91
2022-12-17T17:26:28.629Z,89.11
2022-12-17T17:28:57.576Z,89.14
2022-12-17T17:32:01.345Z,89.28
2022-12-17T17:34:21.590Z,89.05
2022-12-17T17:37:17.185Z,89.30
2022-12-17T17:39:56.017Z,89.04
2022-12-17T17:42:30.202Z,89.12
2022-12-17T17:45:00.033Z,88.85
2022-12-17T17:47:29.526Z,88.91
2022-12-17T17:50:04.781Z,88.71
2022-12-17T17:52:36.539Z,88.30
2022-12-17T17:55:07.807Z,88.55
2022-12-17T17:57:39.713Z,88.33
2022-12-17T18:00:12.838Z,88.59
2022-12-17T18:02:44.609Z,88.21
2022-12-17T18:05:16.709Z,88.44
2022-12-17T18:07:49.158Z,88.68
2022-12-17T18:10:21.168Z,88.78
2022-12-17T18:13:15.068Z,88.33
2022-12-17T18:15:46.572Z,88.44
2022-12-17T18:18:20.427Z,88.25
2022-12-17T18:20:50.339Z,88.49
2022-12-17T18:23:25.753Z,88.59
2022-12-17T18:25:59.408Z,88.55
2022-12-17T18:28:54.121Z,88.66
2022-12-17T18:31:31.259Z,88.44
2022-12-17T18:34:06.311Z,88.75
2022-12-17T18:36:45.006Z,89.01
2022-12-17T18:39:21.118Z,88.73
2022-12-17T18:42:18.521Z,88.95
2022-12-17T18:45:12.189Z,89.07
2022-12-17T18:47:47.236Z,89.28
2022-12-17T18:50:24.769Z,89.26
2022-12-17T18:53:03.690Z,89.16
2022-12-17T18:55:40.783Z,88.96
2022-12-17T18:58:19.326Z,89.38
2022-12-17T19:00:56.900Z,89.37
2022-12-17T19:03:33.887Z,89.73
2022-12-17T19:06:11.868Z,89.76
2022-12-17T19:08:43.217Z,89.66
2022-12-17T19:11:13.466Z,89.77
2022-12-17T19:13:45.320Z,89.84
2022-12-17T19:16:17.342Z,89.72
2022-12-17T19:18:53.670Z,89.76
2022-12-17T19:21:31.803Z,89.95
2022-12-17T19:24:06.400Z,89.88
2022-12-17T19:26:37.326Z,90.20
2022-12-17T19:29:12.895Z,90.31
2022-12-17T19:31:48.785Z,90.33
2022-12-17T19:34:25.415Z,89.90
2022-12-17T19:36:56.915Z,90.11
2022-12-17T19:39:34.916Z,90.15
2022-12-17T19:45:12.658Z,90.20
2022-12-17T19:47:41.344Z,90.83
2022-12-17T19:50:12.528Z,90.98
2022-12-17T19:52:42.950Z,91.02
2022-12-17T19:55:22.348Z,90.76
2022-12-17T19:57:52.664Z,90.59
2022-12-17T20:00:30.169Z,90.93
2022-12-17T20:03:01.292Z,91.11
2022-12-17T20:05:30.935Z,91.13
2022-12-17T20:08:05.299Z,90.98
2022-12-17T20:10:38.311Z,91.06
2022-12-17T20:13:35.242Z,90.89
2022-12-17T20:16:08.108Z,91.33
2022-12-17T20:18:37.559Z,91.37
2022-12-17T20:21:42.562Z,91.18
2022-12-17T20:24:31.023Z,91.06
2022-12-17T20:27:00.852Z,91.26
2022-12-17T20:29:33.228Z,91.10
2022-12-17T20:32:09.848Z,91.03
2022-12-17T20:34:41.112Z,90.94
2022-12-17T20:37:13.763Z,90.87
2022-12-17T20:39:47.584Z,90.99
2022-12-17T20:42:20.362Z,91.16
2022-12-17T20:44:53.673Z,91.02
2022-12-17T20:47:22.969Z,91.13
2022-12-17T20:49:54.215Z,91.20
2022-12-17T20:52:23.331Z,91.11
2022-12-17T20:54:51.751Z,91.25
2022-12-17T20:57:20.376Z,91.38
2022-12-17T20:59:51.938Z,91.41
2022-12-17T21:02:21.767Z,91.29
2022-12-17T21:04:55.251Z,91.36
2022-12-17T21:07:24.753Z,91.37
2022-12-17T21:09:58.797Z,91.70
2022-12-17T21:12:54.501Z,91.81
2022-12-17T21:15:23.347Z,91.70
2022-12-17T21:17:56.031Z,91.60
2022-12-17T21:20:40.883Z,91.50
2022-12-17T21:23:10.710Z,91.41
2022-12-17T21:25:40.649Z,91.42
2022-12-17T21:28:14.285Z,91.37
2022-12-17T21:30:47.214Z,91.54
2022-12-17T21:33:25.552Z,91.50
2022-12-17T21:36:07.442Z,91.34
2022-12-17T21:38:48.020Z,91.37
2022-12-17T21:41:22.388Z,91.46
2022-12-17T21:43:55.758Z,91.59
2022-12-17T21:46:42.265Z,91.42
2022-12-17T21:49:26.801Z,90.91
2022-12-17T21:51:59.189Z,90.88
2022-12-17T21:54:41.477Z,90.78
2022-12-17T21:57:35.784Z,90.47
2022-12-17T22:00:09.908Z,90.66
2022-12-17T22:02:42.929Z,90.47
2022-12-17T22:05:21.690Z,90.76
2022-12-17T22:07:55.392Z,90.53
2022-12-17T22:10:43.207Z,90.17
2022-12-17T22:13:42.133Z,90.15
2022-12-17T22:16:11.049Z,90.28
2022-12-17T22:18:45.885Z,90.37
2022-12-17T22:21:15.718Z,90.30
2022-12-17T22:24:09.726Z,90.20
2022-12-17T22:26:55.373Z,90.08
2022-12-17T22:29:50.710Z,90.17
2022-12-17T22:32:38.670Z,90.17
2022-12-17T22:36:21.318Z,90.08
2022-12-17T22:43:21.633Z,90.23
2022-12-17T22:44:37.552Z,90.26
2022-12-17T22:44:38.395Z,90.24
2022-12-17T22:46:45.903Z,90.41
2022-12-17T22:49:16.860Z,90.23
2022-12-17T22:51:47.011Z,90.22
2022-12-17T22:54:16.553Z,90.26
2022-12-17T22:57:31.246Z,90.35
2022-12-17T22:59:34.163Z,90.28
2022-12-17T23:02:02.563Z,90.10
2022-12-17T23:04:31.209Z,90.27
2022-12-17T23:06:59.704Z,90.38
2022-12-17T23:09:30.766Z,90.40
2022-12-17T23:12:19.667Z,90.43
2022-12-17T23:14:48.635Z,90.59
2022-12-17T23:17:16.827Z,90.58
2022-12-17T23:19:45.041Z,90.76
2022-12-17T23:22:18.851Z,90.91
2022-12-17T23:24:50.521Z,91.10
2022-12-17T23:27:19.107Z,91.09
2022-12-17T23:29:47.304Z,91.16
2022-12-17T23:32:15.551Z,91.17
2022-12-17T23:34:44.136Z,91.19
2022-12-17T23:37:13.033Z,91.19
2022-12-17T23:39:42.467Z,91.27
2022-12-17T23:42:12.451Z,91.22
2022-12-17T23:44:42.321Z,90.81
2022-12-17T23:47:11.099Z,91.06
2022-12-17T23:49:39.646Z,90.73
2022-12-17T23:52:09.509Z,90.82
2022-12-17T23:54:38.745Z,90.45
2022-12-17T23:57:08.590Z,90.44
2022-12-17T23:59:37.143Z,90.15
